< < Back
Terminal Aerodrome Forecast


Current Version              Previous Versions:   1  2  3  4  5  6  7  8  9  

Terminal Aerodrome Forecast

650
FTUS42 KCAE 280800 AAA
TAFAGS
TAF AMD
KAGS 280836Z 2809/2906 VRB04KT P6SM SKC
     FM281400 01008KT P6SM SKC
     FM281700 VRB04KT P6SM SKC=

Latest METAR

988
SAUS70 KWBC 281100 RRG
MTRAGS
METAR KAGS 281053Z AUTO 00000KT 10SM CLR M03/M04 A3038 RMK AO2 SLP286
I1000 T10281039


USA.gov is the U.S. government's official web portal to all federal, state and local government web resources and services.